createdAt,value
2023-07-03T00:00:23.930Z,100095.50
2023-07-03T00:02:53.937Z,100109.00
2023-07-03T00:05:24.691Z,100102.44
2023-07-03T00:07:53.365Z,100088.09
2023-07-03T00:10:22.836Z,100096.56
2023-07-03T00:12:52.232Z,100097.63
2023-07-03T00:15:20.261Z,100102.31
2023-07-03T00:17:48.206Z,100100.16
2023-07-03T00:20:16.713Z,100103.28
2023-07-03T00:22:45.497Z,100083.75
2023-07-03T00:25:13.431Z,100099.69
2023-07-03T00:27:41.314Z,100104.72
2023-07-03T00:30:12.127Z,100100.28
2023-07-03T00:32:39.960Z,100102.78
2023-07-03T00:35:08.637Z,100097.53
2023-07-03T00:37:36.937Z,100100.28
2023-07-03T00:40:08.185Z,100096.31
2023-07-03T00:42:37.406Z,100081.25
2023-07-03T00:45:10.908Z,100092.63
2023-07-03T00:47:39.460Z,100098.47
2023-07-03T00:50:08.501Z,100084.97
2023-07-03T00:52:36.713Z,100086.78
2023-07-03T00:55:04.784Z,100087.84
2023-07-03T00:57:32.621Z,100102.19
2023-07-03T01:00:01.561Z,100108.91
2023-07-03T01:02:37.898Z,100093.09
2023-07-03T01:05:12.419Z,100103.63
2023-07-03T01:07:41.158Z,100095.16
2023-07-03T01:10:12.930Z,100089.28
2023-07-03T01:12:43.941Z,100090.97
2023-07-03T01:15:16.952Z,100049.09
2023-07-03T01:17:48.662Z,100085.94
2023-07-03T01:20:19.569Z,100093.09
2023-07-03T01:22:55.484Z,100086.31
2023-07-03T01:25:27.652Z,100091.53
2023-07-03T01:27:59.661Z,100091.88
2023-07-03T01:30:29.938Z,100097.97
2023-07-03T01:32:59.344Z,100082.09
2023-07-03T01:35:28.539Z,100086.75
2023-07-03T01:37:59.303Z,100074.22
2023-07-03T01:40:29.912Z,100073.63
2023-07-03T01:42:59.376Z,100070.63
2023-07-03T01:45:28.039Z,100076.00
2023-07-03T01:47:56.364Z,100075.63
2023-07-03T01:50:28.560Z,100070.25
2023-07-03T01:52:59.572Z,100071.81
2023-07-03T01:55:40.586Z,100070.63
2023-07-03T01:58:15.381Z,100068.34
2023-07-03T02:00:52.944Z,100072.75
2023-07-03T02:03:27.111Z,100064.97
2023-07-03T02:05:57.973Z,100077.53
2023-07-03T02:08:27.761Z,100079.22
2023-07-03T02:10:57.542Z,100077.66
2023-07-03T02:13:25.570Z,100074.34
2023-07-03T02:15:55.671Z,100083.66
2023-07-03T02:18:24.484Z,100077.44
2023-07-03T02:20:52.849Z,100081.84
2023-07-03T02:23:20.976Z,100081.59
2023-07-03T02:25:49.121Z,100090.91
2023-07-03T02:28:18.714Z,100071.09
2023-07-03T02:30:47.198Z,100078.25
2023-07-03T02:33:15.165Z,100082.56
2023-07-03T02:35:43.267Z,100075.41
2023-07-03T02:38:12.318Z,100080.41
2023-07-03T02:40:43.035Z,100077.53
2023-07-03T02:43:11.388Z,100072.03
2023-07-03T02:45:44.233Z,100089.00
2023-07-03T02:48:15.007Z,100073.44
2023-07-03T02:50:46.715Z,100071.91
2023-07-03T02:53:14.522Z,100075.94
2023-07-03T02:55:42.674Z,100072.72
2023-07-03T02:58:10.767Z,100070.69
2023-07-03T03:00:40.210Z,100066.88
2023-07-03T03:03:09.485Z,100075.25
2023-07-03T03:05:37.915Z,100077.16
2023-07-03T03:08:06.288Z,100072.97
2023-07-03T03:10:34.318Z,100068.44
2023-07-03T03:13:02.324Z,100029.94
2023-07-03T03:15:33.028Z,100071.06
2023-07-03T03:18:00.889Z,100067.09
2023-07-03T03:20:30.177Z,100065.75
2023-07-03T03:22:58.044Z,100061.03
2023-07-03T03:25:26.010Z,100058.03
2023-07-03T03:27:54.187Z,100048.13
2023-07-03T03:30:22.495Z,100061.50
2023-07-03T03:32:50.490Z,100064.47
2023-07-03T03:35:18.696Z,100037.31
2023-07-03T03:37:48.062Z,100068.59
2023-07-03T03:40:15.979Z,100059.53
2023-07-03T03:42:43.880Z,100058.06
2023-07-03T03:45:13.090Z,100036.16
2023-07-03T03:47:41.549Z,100071.91
2023-07-03T03:50:10.620Z,100051.00
2023-07-03T03:52:42.343Z,100068.59
2023-07-03T03:55:12.463Z,100070.50
2023-07-03T03:57:40.337Z,100071.19
2023-07-03T04:00:16.619Z,99967.00
2023-07-03T04:02:45.451Z,100071.53
2023-07-03T04:05:13.578Z,100052.63
2023-07-03T04:07:41.716Z,100060.78
2023-07-03T04:10:10.140Z,100059.94
2023-07-03T04:12:39.366Z,100053.84
2023-07-03T04:15:09.244Z,100051.25
2023-07-03T04:17:37.193Z,100043.28
2023-07-03T04:20:09.084Z,100040.47
2023-07-03T04:22:37.081Z,100036.16
2023-07-03T04:25:05.368Z,100041.53
2023-07-03T04:27:33.463Z,100038.31
2023-07-03T04:30:02.661Z,100054.03
2023-07-03T04:32:30.819Z,100041.50
2023-07-03T04:34:58.845Z,100056.38
2023-07-03T04:37:27.569Z,100068.31
2023-07-03T04:39:55.636Z,100062.94
2023-07-03T04:42:23.441Z,100075.66
2023-07-03T04:44:51.691Z,100065.13
2023-07-03T04:47:21.274Z,100079.44
2023-07-03T04:49:50.099Z,100081.59
2023-07-03T04:52:18.052Z,100075.47
2023-07-03T04:54:45.935Z,100083.25
2023-07-03T04:57:13.922Z,100080.75
2023-07-03T04:59:43.315Z,100078.84
2023-07-03T05:02:13.180Z,100054.34
2023-07-03T05:04:43.798Z,100092.88
2023-07-03T05:07:11.898Z,100095.25
2023-07-03T05:09:39.897Z,100103.84
2023-07-03T05:12:08.570Z,100084.88
2023-07-03T05:14:36.898Z,100099.56
2023-07-03T05:17:05.023Z,100102.00
2023-07-03T05:19:32.788Z,100093.16
2023-07-03T05:22:02.051Z,100088.94
2023-07-03T05:24:29.981Z,100110.91
2023-07-03T05:26:57.956Z,100107.59
2023-07-03T05:29:25.908Z,100112.97
2023-07-03T05:31:53.849Z,100113.81
2023-07-03T05:34:21.745Z,100111.13
2023-07-03T05:36:49.794Z,100111.13
2023-07-03T05:39:19.073Z,100108.50
2023-07-03T05:41:47.044Z,100117.16
2023-07-03T05:44:14.972Z,100110.47
2023-07-03T05:46:42.815Z,100117.03
2023-07-03T05:49:12.521Z,100117.06
2023-07-03T05:51:40.374Z,100115.53
2023-07-03T05:54:08.212Z,100114.69
2023-07-03T05:56:37.445Z,100117.31
2023-07-03T05:59:05.414Z,100121.63
2023-07-03T06:01:33.490Z,100125.91
2023-07-03T06:04:01.581Z,100124.22
2023-07-03T06:06:29.475Z,100123.63
2023-07-03T06:08:57.339Z,100134.03
2023-07-03T06:11:25.193Z,100129.44
2023-07-03T06:13:54.478Z,100127.19
2023-07-03T06:16:23.254Z,100138.03
2023-07-03T06:18:51.111Z,100133.63
2023-07-03T06:21:18.977Z,100131.34
2023-07-03T06:23:47.208Z,100128.13
2023-07-03T06:26:15.023Z,100138.28
2023-07-03T06:28:42.912Z,100133.09
2023-07-03T06:31:12.909Z,100141.56
2023-07-03T06:33:40.948Z,100104.50
2023-07-03T06:36:08.884Z,100138.59
2023-07-03T06:38:36.611Z,100145.66
2023-07-03T06:41:04.583Z,100145.91
2023-07-03T06:43:32.594Z,100136.75
2023-07-03T06:46:00.900Z,100147.03
2023-07-03T06:48:30.196Z,100150.25
2023-07-03T06:51:06.652Z,100154.31
2023-07-03T06:53:34.641Z,100145.47
2023-07-03T06:56:03.730Z,100148.34
2023-07-03T06:58:32.963Z,100147.63
2023-07-03T07:01:07.476Z,100145.47
2023-07-03T07:03:36.866Z,100163.06
2023-07-03T07:06:11.048Z,100156.91
2023-07-03T07:08:39.556Z,100150.69
2023-07-03T07:11:10.495Z,100153.53
2023-07-03T07:13:42.572Z,100153.88
2023-07-03T07:16:14.657Z,100156.75
2023-07-03T07:18:44.342Z,100158.75
2023-07-03T07:21:12.287Z,100147.34
2023-07-03T07:23:40.164Z,100120.53
2023-07-03T07:26:08.248Z,100147.38
2023-07-03T07:28:36.196Z,100149.88
2023-07-03T07:31:04.253Z,100154.09
2023-07-03T07:33:32.149Z,100147.09
2023-07-03T07:36:01.358Z,100147.94
2023-07-03T07:38:29.210Z,100143.28
2023-07-03T07:41:03.170Z,100128.91
2023-07-03T07:43:31.442Z,100133.94
2023-07-03T07:45:59.861Z,100141.50
2023-07-03T07:48:29.431Z,100140.97
2023-07-03T07:50:59.220Z,100129.50
2023-07-03T07:53:30.833Z,100138.38
2023-07-03T07:55:59.588Z,100145.00
2023-07-03T07:58:27.905Z,100141.50
2023-07-03T08:00:57.596Z,100142.50
2023-07-03T08:03:26.610Z,100138.88
2023-07-03T08:05:58.177Z,100143.81
2023-07-03T08:08:27.273Z,100146.69
2023-07-03T08:10:57.803Z,100142.50
2023-07-03T08:13:26.970Z,100150.47
2023-07-03T08:15:55.506Z,100153.97
2023-07-03T08:18:24.647Z,100135.88
2023-07-03T08:20:53.134Z,100148.47
2023-07-03T08:23:21.362Z,100148.41
2023-07-03T08:25:50.981Z,100139.34
2023-07-03T08:28:21.797Z,100142.50
2023-07-03T08:30:50.202Z,100141.47
2023-07-03T08:33:18.698Z,100148.41
2023-07-03T08:38:18.557Z,100137.91
2023-07-03T08:40:46.740Z,100151.31
2023-07-03T08:43:21.126Z,100134.09
2023-07-03T08:45:51.974Z,100083.38
2023-07-03T08:48:23.019Z,100162.81
2023-07-03T08:50:54.712Z,100143.91
2023-07-03T08:53:26.040Z,100164.97
2023-07-03T08:55:59.651Z,100177.84
2023-07-03T08:58:28.943Z,100159.63
2023-07-03T09:01:05.606Z,100174.47
2023-07-03T09:03:45.709Z,100201.84
2023-07-03T09:06:20.878Z,100204.78
2023-07-03T09:09:02.089Z,100179.78
2023-07-03T09:11:35.184Z,100194.72
2023-07-03T09:14:05.070Z,100204.50
2023-07-03T09:16:33.169Z,100200.78
2023-07-03T09:19:10.662Z,100183.06
2023-07-03T09:21:40.668Z,100197.28
2023-07-03T09:24:19.880Z,100182.56
2023-07-03T09:26:53.037Z,100183.56
2023-07-03T09:29:22.869Z,100204.00
2023-07-03T09:31:51.007Z,100209.00
2023-07-03T09:34:18.946Z,100205.38
2023-07-03T09:36:46.840Z,100206.81
2023-07-03T09:39:19.303Z,100203.75
2023-07-03T09:41:48.013Z,100199.03
2023-07-03T09:44:20.254Z,100205.00
2023-07-03T09:46:50.458Z,100204.44
2023-07-03T09:49:26.128Z,100206.38
2023-07-03T09:51:56.338Z,100215.84
2023-07-03T09:54:28.892Z,100210.22
2023-07-03T09:56:57.775Z,100214.66
2023-07-03T09:59:26.480Z,100209.91
2023-07-03T10:07:09.017Z,100216.31
2023-07-03T10:12:22.833Z,100202.47
2023-07-03T10:14:56.842Z,100191.19
2023-07-03T10:17:30.648Z,100203.84
2023-07-03T10:20:04.762Z,100211.66
2023-07-03T10:22:33.787Z,100208.31
2023-07-03T10:25:05.438Z,100195.47
2023-07-03T10:27:36.550Z,100201.66
2023-07-03T10:30:12.223Z,100215.56
2023-07-03T10:32:45.495Z,100214.22
2023-07-03T10:35:22.530Z,100223.59
2023-07-03T10:37:58.756Z,100220.00
2023-07-03T10:40:33.274Z,100230.22
2023-07-03T10:43:04.176Z,100227.84
2023-07-03T10:45:34.964Z,100229.50
2023-07-03T10:48:09.574Z,100239.88
2023-07-03T10:50:44.718Z,100234.78
2023-07-03T10:53:25.515Z,100243.00
2023-07-03T10:56:03.081Z,100240.59
2023-07-03T10:58:42.084Z,100242.47
2023-07-03T11:01:17.303Z,100245.38
2023-07-03T11:04:11.267Z,100243.50
2023-07-03T11:06:53.726Z,100233.84
2023-07-03T11:09:27.885Z,100220.81
2023-07-03T11:12:04.820Z,100231.34
2023-07-03T11:14:43.497Z,100242.50
2023-07-03T11:17:19.553Z,100229.50
2023-07-03T11:20:01.424Z,100242.34
2023-07-03T11:25:21.421Z,100238.78
2023-07-03T11:27:58.670Z,100207.28
2023-07-03T11:30:27.211Z,100241.22
2023-07-03T11:32:58.390Z,100242.44
2023-07-03T11:40:38.685Z,100250.75
2023-07-03T11:46:19.645Z,100250.94
2023-07-03T11:48:51.379Z,100239.34
2023-07-03T11:51:33.357Z,100234.56
2023-07-03T11:54:01.981Z,100236.72
2023-07-03T11:56:47.015Z,100231.13
2023-07-03T11:59:26.451Z,100241.56
2023-07-03T12:02:04.447Z,100248.09
2023-07-03T12:04:52.077Z,100236.97
2023-07-03T12:07:52.227Z,100254.03
2023-07-03T12:10:48.208Z,100251.22
2023-07-03T12:13:37.207Z,100256.09
2023-07-03T12:16:09.490Z,100264.88
2023-07-03T12:18:38.258Z,100262.34
2023-07-03T12:21:07.270Z,100255.00
2023-07-03T12:23:38.497Z,100270.19
2023-07-03T12:26:08.896Z,100268.38
2023-07-03T12:28:37.386Z,100267.22
2023-07-03T12:31:20.608Z,100273.22
2023-07-03T12:33:56.281Z,100278.75
2023-07-03T12:36:26.086Z,100273.47
2023-07-03T12:38:56.732Z,100263.03
2023-07-03T12:41:28.366Z,100264.50
2023-07-03T12:44:07.559Z,100257.75
2023-07-03T12:46:38.452Z,100263.34
2023-07-03T12:49:10.039Z,100239.56
2023-07-03T12:51:43.927Z,100250.25
2023-07-03T12:54:14.552Z,100246.88
2023-07-03T12:56:45.142Z,100238.94
2023-07-03T12:59:17.409Z,100245.91
2023-07-03T13:01:49.591Z,100247.63
2023-07-03T13:04:27.127Z,100225.00
2023-07-03T13:06:55.393Z,100236.66
2023-07-03T13:09:26.161Z,100227.19
2023-07-03T13:11:54.087Z,100218.47
2023-07-03T13:14:24.117Z,100235.06
2023-07-03T13:16:55.076Z,100230.13
2023-07-03T13:19:27.303Z,100234.69
2023-07-03T13:21:55.619Z,100229.31
2023-07-03T13:24:27.624Z,100225.13
2023-07-03T13:26:57.277Z,100200.41
2023-07-03T13:29:35.014Z,100195.06
2023-07-03T13:32:17.074Z,100218.56
2023-07-03T13:34:57.603Z,100214.28
2023-07-03T13:37:27.933Z,100216.16
2023-07-03T13:40:01.792Z,100226.88
2023-07-03T13:42:31.162Z,100219.81
2023-07-03T13:44:59.919Z,100219.75
2023-07-03T13:47:29.666Z,100192.47
2023-07-03T13:49:58.026Z,100207.84
2023-07-03T13:52:26.141Z,100220.56
2023-07-03T13:54:54.141Z,100212.41
2023-07-03T13:57:23.410Z,100207.38
2023-07-03T13:59:51.301Z,100205.06
2023-07-03T14:02:19.254Z,100187.88
2023-07-03T14:04:47.321Z,100199.94
2023-07-03T14:07:15.323Z,100192.34
2023-07-03T14:09:43.452Z,100208.50
2023-07-03T14:12:11.371Z,100190.09
2023-07-03T14:14:40.873Z,100202.31
2023-07-03T14:17:08.961Z,100202.78
2023-07-03T14:19:37.069Z,100148.09
2023-07-03T14:22:06.323Z,100209.44
2023-07-03T14:24:35.250Z,100201.72
2023-07-03T14:27:03.864Z,100183.78
2023-07-03T14:29:31.734Z,100204.59
2023-07-03T14:32:00.955Z,100192.38
2023-07-03T14:34:28.814Z,100197.63
2023-07-03T14:36:56.692Z,100201.06
2023-07-03T14:39:24.593Z,100180.81
2023-07-03T14:41:53.836Z,100184.69
2023-07-03T14:44:21.702Z,100191.00
2023-07-03T14:46:49.508Z,100188.81
2023-07-03T14:49:18.668Z,100185.41
2023-07-03T14:51:46.636Z,100173.63
2023-07-03T14:54:14.530Z,100195.44
2023-07-03T14:56:42.822Z,100187.66
2023-07-03T14:59:11.150Z,100199.16
2023-07-03T15:01:39.556Z,100195.13
2023-07-03T15:04:08.624Z,100187.31
2023-07-03T15:06:40.764Z,100193.38
2023-07-03T15:09:09.527Z,100194.16
2023-07-03T15:11:39.631Z,100185.53
2023-07-03T15:14:09.336Z,100201.28
2023-07-03T15:16:38.292Z,100198.66
2023-07-03T15:19:08.060Z,100194.53
2023-07-03T15:21:40.645Z,100195.91
2023-07-03T15:24:10.591Z,100194.56
2023-07-03T15:26:40.099Z,100188.13
2023-07-03T15:29:08.472Z,100183.78
2023-07-03T15:31:37.238Z,100190.72
2023-07-03T15:34:07.134Z,100184.84
2023-07-03T15:36:35.400Z,100189.66
2023-07-03T15:39:05.864Z,100189.34
2023-07-03T15:41:34.737Z,100181.38
2023-07-03T15:44:03.648Z,100179.16
2023-07-03T15:46:32.495Z,100190.97
2023-07-03T15:49:00.940Z,100190.38
2023-07-03T15:51:29.572Z,100195.09
2023-07-03T15:53:58.007Z,100196.81
2023-07-03T15:56:27.840Z,100192.19
2023-07-03T15:58:58.368Z,100184.47
2023-07-03T16:01:28.316Z,100184.78
2023-07-03T16:03:58.885Z,100200.72
2023-07-03T16:06:29.029Z,100191.84
2023-07-03T16:08:58.813Z,100193.16
2023-07-03T16:11:29.035Z,100203.84
2023-07-03T16:13:59.391Z,100204.13
2023-07-03T16:16:28.653Z,100197.22
2023-07-03T16:18:59.777Z,100206.91
2023-07-03T16:21:31.341Z,100201.59
2023-07-03T16:24:00.311Z,100206.41
2023-07-03T16:26:29.907Z,100209.75
2023-07-03T16:28:57.924Z,100208.56
2023-07-03T16:31:28.700Z,100212.91
2023-07-03T16:33:59.013Z,100203.53
2023-07-03T16:36:29.219Z,100213.56
2023-07-03T16:38:58.884Z,100211.38
2023-07-03T16:41:29.851Z,100213.56
2023-07-03T16:43:59.210Z,100192.34
2023-07-03T16:46:29.046Z,100210.94
2023-07-03T16:48:58.497Z,100211.88
2023-07-03T16:51:28.176Z,100207.19
2023-07-03T16:53:57.590Z,100216.38
2023-07-03T16:56:28.854Z,100208.41
2023-07-03T16:58:59.273Z,100201.19
2023-07-03T17:01:30.221Z,100211.69
2023-07-03T17:03:58.863Z,100196.81
2023-07-03T17:06:30.350Z,100198.97
2023-07-03T17:08:58.535Z,100182.81
2023-07-03T17:11:27.016Z,100191.19
2023-07-03T17:13:56.254Z,100205.63
2023-07-03T17:16:25.642Z,100196.09
2023-07-03T17:18:53.648Z,100190.50
2023-07-03T17:21:21.517Z,100203.81
2023-07-03T17:23:57.422Z,100191.53
2023-07-03T17:26:25.702Z,100193.69
2023-07-03T17:28:53.584Z,100194.72
2023-07-03T17:31:24.955Z,100188.06
2023-07-03T17:33:55.551Z,100195.81
2023-07-03T17:36:24.762Z,100185.81
2023-07-03T17:38:53.162Z,100189.41
2023-07-03T17:41:21.269Z,100183.59
2023-07-03T17:43:49.270Z,100187.03
2023-07-03T17:46:17.947Z,100184.47
2023-07-03T17:48:46.120Z,100179.81
2023-07-03T17:51:15.493Z,100171.22
2023-07-03T17:53:45.274Z,100154.91
2023-07-03T17:56:13.632Z,100171.91
2023-07-03T17:58:43.547Z,100169.22
2023-07-03T18:01:11.895Z,100137.31
2023-07-03T18:03:39.882Z,100175.38
2023-07-03T18:06:09.276Z,100172.63
2023-07-03T18:08:38.719Z,100167.63
2023-07-03T18:11:06.778Z,100163.69
2023-07-03T18:13:35.020Z,100166.38
2023-07-03T18:16:03.482Z,100168.97
2023-07-03T18:18:32.055Z,100162.00
2023-07-03T18:21:00.335Z,100151.94
2023-07-03T18:23:28.674Z,100157.16
2023-07-03T18:25:58.347Z,100162.91
2023-07-03T18:28:26.666Z,100160.22
2023-07-03T18:30:59.091Z,100160.16
2023-07-03T18:33:28.695Z,100162.41
2023-07-03T18:35:56.755Z,100160.09
2023-07-03T18:38:25.204Z,100155.09
2023-07-03T18:40:54.475Z,100152.91
2023-07-03T18:43:24.646Z,100149.81
2023-07-03T18:45:53.264Z,100149.75
2023-07-03T18:48:21.730Z,100158.09
2023-07-03T18:50:50.455Z,100157.75
2023-07-03T18:53:18.972Z,100152.69
2023-07-03T18:55:48.557Z,100157.44
2023-07-03T18:58:17.393Z,100164.06
2023-07-03T19:00:47.652Z,100161.31
2023-07-03T19:03:16.474Z,100148.66
2023-07-03T19:05:51.933Z,100146.72
2023-07-03T19:08:20.486Z,100154.94
2023-07-03T19:10:48.741Z,100151.69
2023-07-03T19:13:17.183Z,100147.69
2023-07-03T19:15:47.077Z,100143.00
2023-07-03T19:18:15.474Z,100156.72
2023-07-03T19:20:43.714Z,100152.19
2023-07-03T19:23:12.105Z,100147.97
2023-07-03T19:25:40.474Z,100148.41
2023-07-03T19:28:09.100Z,100149.06
2023-07-03T19:30:37.443Z,100157.56
2023-07-03T19:33:07.183Z,100146.97
2023-07-03T19:35:35.877Z,100148.00
2023-07-03T19:38:04.508Z,100153.25
2023-07-03T19:40:37.939Z,100144.03
2023-07-03T19:43:06.382Z,100144.78
2023-07-03T19:45:35.447Z,100139.34
2023-07-03T19:48:04.865Z,100149.28
2023-07-03T19:50:34.744Z,100154.16
2023-07-03T19:53:03.182Z,100143.19
2023-07-03T19:55:31.371Z,100155.00
2023-07-03T19:57:59.653Z,100137.78
2023-07-03T20:00:27.986Z,100138.34
2023-07-03T20:02:56.841Z,100146.63
2023-07-03T20:05:25.493Z,100147.13
2023-07-03T20:07:54.807Z,100131.34
2023-07-03T20:10:22.929Z,100140.25
2023-07-03T20:12:51.954Z,100123.88
2023-07-03T20:15:22.510Z,100131.94
2023-07-03T20:17:51.412Z,100118.13
2023-07-03T20:20:19.799Z,100128.75
2023-07-03T20:22:47.885Z,100126.59
2023-07-03T20:25:18.709Z,100115.88
2023-07-03T20:27:46.766Z,100108.69
2023-07-03T20:30:15.273Z,100124.81
2023-07-03T20:32:44.912Z,100128.41
2023-07-03T20:35:13.113Z,100125.16
2023-07-03T20:37:41.870Z,100124.50
2023-07-03T20:40:10.578Z,100126.66
2023-07-03T20:42:39.767Z,100124.28
2023-07-03T20:45:08.848Z,100124.56
2023-07-03T20:47:36.768Z,100111.53
2023-07-03T20:50:05.415Z,100120.22
2023-07-03T20:52:36.450Z,100123.56
2023-07-03T20:55:23.786Z,100122.56
2023-07-03T20:57:53.232Z,100114.28
2023-07-03T21:00:21.675Z,100121.22
2023-07-03T21:02:50.790Z,100114.53
2023-07-03T21:05:20.371Z,100115.63
2023-07-03T21:07:48.235Z,100115.19
2023-07-03T21:10:16.590Z,100112.88
2023-07-03T21:12:44.627Z,100115.28
2023-07-03T21:15:14.089Z,100105.94
2023-07-03T21:17:41.947Z,100117.38
2023-07-03T21:20:11.207Z,100109.34
2023-07-03T21:22:39.073Z,100111.03
2023-07-03T21:25:07.780Z,100105.16
2023-07-03T21:27:35.666Z,100097.66
2023-07-03T21:30:03.536Z,100098.31
2023-07-03T21:32:32.940Z,100101.66
2023-07-03T21:35:01.005Z,100087.94
2023-07-03T21:37:30.989Z,100096.47
2023-07-03T21:39:59.015Z,100089.94
2023-07-03T21:42:26.861Z,100093.28
2023-07-03T21:44:54.721Z,100083.09
2023-07-03T21:47:22.722Z,100091.69
2023-07-03T21:49:52.072Z,100087.66
2023-07-03T21:52:20.188Z,100080.72
2023-07-03T21:54:48.896Z,100067.50
2023-07-03T21:57:19.278Z,100081.88
2023-07-03T21:59:49.460Z,100087.38
2023-07-03T22:02:17.411Z,100090.84
2023-07-03T22:04:45.585Z,100088.69
2023-07-03T22:07:14.924Z,100091.34
2023-07-03T22:09:42.971Z,100094.59
2023-07-03T22:12:11.783Z,100087.06
2023-07-03T22:14:39.818Z,100086.81
2023-07-03T22:17:07.708Z,100094.22
2023-07-03T22:19:37.492Z,100091.78
2023-07-03T22:22:07.487Z,100101.59
2023-07-03T22:24:37.761Z,100106.28
2023-07-03T22:27:06.375Z,100106.88
2023-07-03T22:29:38.701Z,100098.84
2023-07-03T22:32:08.200Z,100112.03
2023-07-03T22:34:36.331Z,100112.28
2023-07-03T22:37:04.687Z,100111.28
2023-07-03T22:39:32.692Z,100112.63
2023-07-03T22:42:02.083Z,100113.22
2023-07-03T22:44:30.065Z,100110.81
2023-07-03T22:46:58.382Z,100100.78
2023-07-03T22:49:26.549Z,100119.75
2023-07-03T22:51:55.031Z,100124.09
2023-07-03T22:54:23.491Z,100109.72
2023-07-03T22:56:51.431Z,100119.66
2023-07-03T22:59:20.673Z,100118.22
2023-07-03T23:01:49.313Z,100117.06
2023-07-03T23:04:36.426Z,100115.31
2023-07-03T23:07:04.774Z,100110.31
2023-07-03T23:09:33.320Z,100109.88
2023-07-03T23:12:01.353Z,100122.09
2023-07-03T23:14:30.611Z,100122.94
2023-07-03T23:17:00.715Z,100126.03
2023-07-03T23:19:29.646Z,100125.19
2023-07-03T23:21:57.956Z,100109.31
2023-07-03T23:24:27.157Z,100126.41
2023-07-03T23:26:55.089Z,100125.34
2023-07-03T23:29:23.259Z,100109.81
2023-07-03T23:31:53.148Z,100119.84
2023-07-03T23:34:21.493Z,100109.72
2023-07-03T23:36:51.832Z,100113.66
2023-07-03T23:39:19.834Z,100131.94
2023-07-03T23:41:47.863Z,100130.03
2023-07-03T23:44:15.764Z,100133.38
2023-07-03T23:46:43.773Z,100126.91
2023-07-03T23:49:13.030Z,100152.31
2023-07-03T23:51:41.011Z,100151.03
2023-07-03T23:54:10.742Z,100149.84
2023-07-03T23:56:39.355Z,100155.06
2023-07-03T23:59:08.534Z,100149.56
